sensor_id;sensor_type;location;lat;lon;timestamp;pressure;altitude;pressure_sealevel;temperature;humidity
46714;BME280;32445;51.376;10.874;2023-04-15T00:02:33;98528.91;;;9.44;50.55
46714;BME280;32445;51.376;10.874;2023-04-15T00:05:33;98516.88;;;9.43;51.48
46714;BME280;32445;51.376;10.874;2023-04-15T00:08:33;98522.97;;;9.42;51.20
46714;BME280;32445;51.376;10.874;2023-04-15T00:11:34;98523.03;;;9.40;50.91
46714;BME280;32445;51.376;10.874;2023-04-15T00:14:34;98523.91;;;9.39;51.60
46714;BME280;32445;51.376;10.874;2023-04-15T00:17:35;98515.31;;;9.39;51.45
46714;BME280;32445;51.376;10.874;2023-04-15T00:20:38;98512.78;;;9.37;51.40
46714;BME280;32445;51.376;10.874;2023-04-15T00:23:38;98514.50;;;9.37;51.27
46714;BME280;32445;51.376;10.874;2023-04-15T00:26:38;98511.09;;;9.36;51.29
46714;BME280;32445;51.376;10.874;2023-04-15T00:29:39;98506.78;;;9.35;51.35
46714;BME280;32445;51.376;10.874;2023-04-15T00:32:39;98505.97;;;9.34;51.18
46714;BME280;32445;51.376;10.874;2023-04-15T00:35:41;98501.69;;;9.33;51.57
46714;BME280;32445;51.376;10.874;2023-04-15T00:38:41;98499.09;;;9.33;51.08
46714;BME280;32445;51.376;10.874;2023-04-15T00:41:43;98492.22;;;9.32;51.34
46714;BME280;32445;51.376;10.874;2023-04-15T00:44:44;98493.13;;;9.31;51.08
46714;BME280;32445;51.376;10.874;2023-04-15T00:47:45;98485.38;;;9.31;51.45
46714;BME280;32445;51.376;10.874;2023-04-15T00:50:45;98483.59;;;9.32;51.46
46714;BME280;32445;51.376;10.874;2023-04-15T00:53:45;98482.78;;;9.31;52.11
46714;BME280;32445;51.376;10.874;2023-04-15T00:56:46;98479.31;;;9.31;51.84
46714;BME280;32445;51.376;10.874;2023-04-15T00:59:46;98472.47;;;9.30;51.59
46714;BME280;32445;51.376;10.874;2023-04-15T01:02:46;98464.72;;;9.28;51.78
46714;BME280;32445;51.376;10.874;2023-04-15T01:05:48;98475.16;;;9.27;52.05
46714;BME280;32445;51.376;10.874;2023-04-15T01:08:49;98468.38;;;9.24;51.92
46714;BME280;32445;51.376;10.874;2023-04-15T01:11:50;98482.22;;;9.23;52.05
46714;BME280;32445;51.376;10.874;2023-04-15T01:14:52;98482.25;;;9.22;51.94
46714;BME280;32445;51.376;10.874;2023-04-15T01:17:52;98485.75;;;9.21;52.05
46714;BME280;32445;51.376;10.874;2023-04-15T01:20:53;98479.78;;;9.18;52.01
46714;BME280;32445;51.376;10.874;2023-04-15T01:23:54;98473.94;;;9.13;52.65
46714;BME280;32445;51.376;10.874;2023-04-15T01:26:56;98474.09;;;9.09;52.73
46714;BME280;32445;51.376;10.874;2023-04-15T01:29:56;98473.41;;;9.04;53.87
46714;BME280;32445;51.376;10.874;2023-04-15T01:32:57;98468.41;;;8.99;53.81
46714;BME280;32445;51.376;10.874;2023-04-15T01:35:57;98466.66;;;8.99;53.48
46714;BME280;32445;51.376;10.874;2023-04-15T01:38:58;98469.31;;;8.98;53.66
46714;BME280;32445;51.376;10.874;2023-04-15T01:41:58;98460.75;;;8.96;53.59
46714;BME280;32445;51.376;10.874;2023-04-15T01:44:59;98465.19;;;8.92;54.09
46714;BME280;32445;51.376;10.874;2023-04-15T01:47:59;98460.13;;;8.89;54.36
46714;BME280;32445;51.376;10.874;2023-04-15T01:50:59;98462.78;;;8.88;54.18
46714;BME280;32445;51.376;10.874;2023-04-15T01:54:00;98456.06;;;8.82;54.76
46714;BME280;32445;51.376;10.874;2023-04-15T01:57:01;98455.25;;;8.81;55.18
46714;BME280;32445;51.376;10.874;2023-04-15T02:00:01;98450.13;;;8.80;55.15
46714;BME280;32445;51.376;10.874;2023-04-15T02:03:03;98455.19;;;8.83;54.60
46714;BME280;32445;51.376;10.874;2023-04-15T02:06:04;98450.66;;;8.88;53.20
46714;BME280;32445;51.376;10.874;2023-04-15T02:09:05;98448.94;;;8.89;53.81
46714;BME280;32445;51.376;10.874;2023-04-15T02:12:05;98448.06;;;8.90;53.91
46714;BME280;32445;51.376;10.874;2023-04-15T02:15:06;98441.13;;;8.90;54.21
46714;BME280;32445;51.376;10.874;2023-04-15T02:18:06;98443.78;;;8.89;54.02
46714;BME280;32445;51.376;10.874;2023-04-15T02:21:07;98444.59;;;8.89;54.22
46714;BME280;32445;51.376;10.874;2023-04-15T02:24:08;98447.94;;;8.93;54.16
46714;BME280;32445;51.376;10.874;2023-04-15T02:27:08;98452.19;;;8.94;54.13
46714;BME280;32445;51.376;10.874;2023-04-15T02:30:09;98447.00;;;8.94;53.95
46714;BME280;32445;51.376;10.874;2023-04-15T02:33:09;98451.38;;;8.93;54.19
46714;BME280;32445;51.376;10.874;2023-04-15T02:36:10;98455.69;;;8.93;54.26
46714;BME280;32445;51.376;10.874;2023-04-15T02:39:11;98457.47;;;8.91;53.88
46714;BME280;32445;51.376;10.874;2023-04-15T02:42:13;98453.25;;;8.88;54.87
46714;BME280;32445;51.376;10.874;2023-04-15T02:45:14;98455.00;;;8.88;54.84
46714;BME280;32445;51.376;10.874;2023-04-15T02:48:14;98452.53;;;8.85;55.22
46714;BME280;32445;51.376;10.874;2023-04-15T02:51:18;98444.88;;;8.81;55.33
46714;BME280;32445;51.376;10.874;2023-04-15T02:54:21;98451.00;;;8.79;55.67
46714;BME280;32445;51.376;10.874;2023-04-15T02:57:28;98451.91;;;8.78;55.63
46714;BME280;32445;51.376;10.874;2023-04-15T03:00:28;98448.53;;;8.76;56.19
46714;BME280;32445;51.376;10.874;2023-04-15T03:03:29;98447.78;;;8.72;56.70
46714;BME280;32445;51.376;10.874;2023-04-15T03:06:30;98446.16;;;8.70;57.10
46714;BME280;32445;51.376;10.874;2023-04-15T03:09:30;98452.25;;;8.69;56.79
46714;BME280;32445;51.376;10.874;2023-04-15T03:12:31;98447.06;;;8.69;57.10
46714;BME280;32445;51.376;10.874;2023-04-15T03:15:31;98446.22;;;8.68;57.10
46714;BME280;32445;51.376;10.874;2023-04-15T03:18:32;98445.38;;;8.68;57.32
46714;BME280;32445;51.376;10.874;2023-04-15T03:21:32;98445.38;;;8.68;56.84
46714;BME280;32445;51.376;10.874;2023-04-15T03:24:33;98448.75;;;8.70;57.18
46714;BME280;32445;51.376;10.874;2023-04-15T03:27:33;98432.31;;;8.71;57.47
46714;BME280;32445;51.376;10.874;2023-04-15T03:30:33;98437.63;;;8.68;57.74
46714;BME280;32445;51.376;10.874;2023-04-15T03:33:34;98435.97;;;8.65;58.04
46714;BME280;32445;51.376;10.874;2023-04-15T03:36:34;98431.72;;;8.64;58.08
46714;BME280;32445;51.376;10.874;2023-04-15T03:39:35;98431.72;;;8.64;57.94
46714;BME280;32445;51.376;10.874;2023-04-15T03:42:35;98434.34;;;8.62;58.63
46714;BME280;32445;51.376;10.874;2023-04-15T03:45:36;98429.16;;;8.62;59.02
46714;BME280;32445;51.376;10.874;2023-04-15T03:48:36;98437.03;;;8.59;59.05
46714;BME280;32445;51.376;10.874;2023-04-15T03:51:36;98432.84;;;8.57;59.63
46714;BME280;32445;51.376;10.874;2023-04-15T03:54:37;98431.13;;;8.56;59.70
46714;BME280;32445;51.376;10.874;2023-04-15T03:57:37;98430.34;;;8.54;60.01
46714;BME280;32445;51.376;10.874;2023-04-15T04:00:39;98420.78;;;8.56;59.76
46714;BME280;32445;51.376;10.874;2023-04-15T04:03:40;98425.09;;;8.55;59.65
46714;BME280;32445;51.376;10.874;2023-04-15T04:06:40;98422.50;;;8.57;59.95
46714;BME280;32445;51.376;10.874;2023-04-15T04:09:41;98421.56;;;8.58;59.47
46714;BME280;32445;51.376;10.874;2023-04-15T04:12:41;98422.50;;;8.55;60.57
46714;BME280;32445;51.376;10.874;2023-04-15T04:15:42;98424.31;;;8.53;60.52
46714;BME280;32445;51.376;10.874;2023-04-15T04:18:42;98416.63;;;8.52;60.73
46714;BME280;32445;51.376;10.874;2023-04-15T04:21:42;98419.03;;;8.56;60.33
46714;BME280;32445;51.376;10.874;2023-04-15T04:24:43;98418.25;;;8.54;61.12
46714;BME280;32445;51.376;10.874;2023-04-15T04:27:43;98423.53;;;8.51;60.89
46714;BME280;32445;51.376;10.874;2023-04-15T04:30:44;98420.91;;;8.53;61.00
46714;BME280;32445;51.376;10.874;2023-04-15T04:33:45;98419.94;;;8.55;60.68
46714;BME280;32445;51.376;10.874;2023-04-15T04:36:45;98424.28;;;8.55;60.94
46714;BME280;32445;51.376;10.874;2023-04-15T04:39:46;98422.56;;;8.54;60.82
46714;BME280;32445;51.376;10.874;2023-04-15T04:42:46;98419.22;;;8.52;61.47
46714;BME280;32445;51.376;10.874;2023-04-15T04:45:47;98420.16;;;8.49;61.06
46714;BME280;32445;51.376;10.874;2023-04-15T04:48:47;98424.59;;;8.45;61.90
46714;BME280;32445;51.376;10.874;2023-04-15T04:51:47;98416.13;;;8.40;61.97
46714;BME280;32445;51.376;10.874;2023-04-15T04:54:48;98423.09;;;8.38;61.81
46714;BME280;32445;51.376;10.874;2023-04-15T04:57:48;98412.78;;;8.37;61.97
46714;BME280;32445;51.376;10.874;2023-04-15T05:00:49;98409.31;;;8.38;62.29
46714;BME280;32445;51.376;10.874;2023-04-15T05:03:49;98409.34;;;8.36;62.08
46714;BME280;32445;51.376;10.874;2023-04-15T05:06:49;98412.75;;;8.38;62.06
46714;BME280;32445;51.376;10.874;2023-04-15T05:09:50;98410.94;;;8.40;62.14
46714;BME280;32445;51.376;10.874;2023-04-15T05:12:50;98406.78;;;8.36;62.31
46714;BME280;32445;51.376;10.874;2023-04-15T05:15:51;98407.59;;;8.37;62.26
46714;BME280;32445;51.376;10.874;2023-04-15T05:18:52;98415.22;;;8.41;61.74
46714;BME280;32445;51.376;10.874;2023-04-15T05:21:52;98411.69;;;8.44;61.75
46714;BME280;32445;51.376;10.874;2023-04-15T05:24:53;98411.00;;;8.39;62.25
46714;BME280;32445;51.376;10.874;2023-04-15T05:27:53;98410.31;;;8.34;62.44
46714;BME280;32445;51.376;10.874;2023-04-15T05:30:53;98405.19;;;8.32;62.96
46714;BME280;32445;51.376;10.874;2023-04-15T05:33:54;98393.25;;;8.28;63.43
46714;BME280;32445;51.376;10.874;2023-04-15T05:36:55;98395.13;;;8.24;63.68
46714;BME280;32445;51.376;10.874;2023-04-15T05:39:55;98390.72;;;8.26;63.06
46714;BME280;32445;51.376;10.874;2023-04-15T05:42:56;98394.28;;;8.24;63.36
46714;BME280;32445;51.376;10.874;2023-04-15T05:45:56;98395.84;;;8.28;63.45
46714;BME280;32445;51.376;10.874;2023-04-15T05:48:56;98392.31;;;8.30;63.95
46714;BME280;32445;51.376;10.874;2023-04-15T05:51:57;98403.53;;;8.31;64.04
46714;BME280;32445;51.376;10.874;2023-04-15T05:54:57;98410.53;;;8.27;64.11
46714;BME280;32445;51.376;10.874;2023-04-15T05:57:57;98417.50;;;8.25;64.48
46714;BME280;32445;51.376;10.874;2023-04-15T06:00:58;98419.13;;;8.28;63.87
46714;BME280;32445;51.376;10.874;2023-04-15T06:03:59;98421.50;;;8.34;64.00
46714;BME280;32445;51.376;10.874;2023-04-15T06:07:01;98416.34;;;8.34;64.15
46714;BME280;32445;51.376;10.874;2023-04-15T06:10:02;98424.88;;;8.36;63.62
46714;BME280;32445;51.376;10.874;2023-04-15T06:13:03;98421.50;;;8.34;64.37
46714;BME280;32445;51.376;10.874;2023-04-15T06:16:03;98427.47;;;8.36;64.32
46714;BME280;32445;51.376;10.874;2023-04-15T06:19:04;98420.50;;;8.38;64.16
46714;BME280;32445;51.376;10.874;2023-04-15T06:22:04;98419.66;;;8.38;64.33
46714;BME280;32445;51.376;10.874;2023-04-15T06:25:06;98431.75;;;8.37;64.27
46714;BME280;32445;51.376;10.874;2023-04-15T06:28:08;98425.63;;;8.40;64.76
46714;BME280;32445;51.376;10.874;2023-04-15T06:31:08;98436.69;;;8.43;63.68
46714;BME280;32445;51.376;10.874;2023-04-15T06:34:08;98445.31;;;8.44;64.11
46714;BME280;32445;51.376;10.874;2023-04-15T06:37:10;98440.13;;;8.45;63.88
46714;BME280;32445;51.376;10.874;2023-04-15T06:40:15;98438.44;;;8.44;64.03
46714;BME280;32445;51.376;10.874;2023-04-15T06:43:15;98446.06;;;8.47;64.31
46714;BME280;32445;51.376;10.874;2023-04-15T06:46:15;98431.50;;;8.45;64.29
46714;BME280;32445;51.376;10.874;2023-04-15T06:49:16;98446.91;;;8.48;64.36
46714;BME280;32445;51.376;10.874;2023-04-15T06:52:16;98444.25;;;8.51;64.32
46714;BME280;32445;51.376;10.874;2023-04-15T06:55:16;98451.13;;;8.51;64.33
46714;BME280;32445;51.376;10.874;2023-04-15T06:58:17;98445.91;;;8.52;64.38
46714;BME280;32445;51.376;10.874;2023-04-15T07:01:17;98443.13;;;8.58;63.76
46714;BME280;32445;51.376;10.874;2023-04-15T07:04:17;98450.66;;;8.64;63.52
46714;BME280;32445;51.376;10.874;2023-04-15T07:07:18;98456.66;;;8.65;63.74
46714;BME280;32445;51.376;10.874;2023-04-15T07:10:18;98448.84;;;8.66;63.44
46714;BME280;32445;51.376;10.874;2023-04-15T07:13:19;98444.44;;;8.70;63.54
46714;BME280;32445;51.376;10.874;2023-04-15T07:16:19;98447.06;;;8.69;63.58
46714;BME280;32445;51.376;10.874;2023-04-15T07:19:20;98444.53;;;8.67;64.04
46714;BME280;32445;51.376;10.874;2023-04-15T07:22:20;98441.09;;;8.66;64.57
46714;BME280;32445;51.376;10.874;2023-04-15T07:25:21;98430.81;;;8.65;64.40
46714;BME280;32445;51.376;10.874;2023-04-15T07:28:21;98438.56;;;8.65;64.73
46714;BME280;32445;51.376;10.874;2023-04-15T07:31:22;98433.38;;;8.65;64.12
46714;BME280;32445;51.376;10.874;2023-04-15T07:34:22;98425.63;;;8.65;64.68
46714;BME280;32445;51.376;10.874;2023-04-15T07:37:23;98425.50;;;8.68;64.18
46714;BME280;32445;51.376;10.874;2023-04-15T07:40:24;98427.31;;;8.66;64.66
46714;BME280;32445;51.376;10.874;2023-04-15T07:43:24;98430.75;;;8.66;65.34
46714;BME280;32445;51.376;10.874;2023-04-15T07:46:24;98422.97;;;8.66;65.03
46714;BME280;32445;51.376;10.874;2023-04-15T07:49:26;98432.38;;;8.69;64.65
46714;BME280;32445;51.376;10.874;2023-04-15T07:52:27;98436.56;;;8.73;64.89
46714;BME280;32445;51.376;10.874;2023-04-15T07:55:27;98433.13;;;8.73;65.39
46714;BME280;32445;51.376;10.874;2023-04-15T07:58:29;98412.50;;;8.71;65.48
46714;BME280;32445;51.376;10.874;2023-04-15T08:01:30;98419.28;;;8.74;65.34
46714;BME280;32445;51.376;10.874;2023-04-15T08:04:30;98420.97;;;8.75;65.13
46714;BME280;32445;51.376;10.874;2023-04-15T08:07:31;98432.16;;;8.75;65.17
46714;BME280;32445;51.376;10.874;2023-04-15T08:10:31;98434.81;;;8.74;65.53
46714;BME280;32445;51.376;10.874;2023-04-15T08:13:32;98433.03;;;8.76;65.36
46714;BME280;32445;51.376;10.874;2023-04-15T08:16:32;98450.25;;;8.77;65.16
46714;BME280;32445;51.376;10.874;2023-04-15T08:19:33;98449.38;;;8.76;65.31
46714;BME280;32445;51.376;10.874;2023-04-15T08:22:33;98465.53;;;8.83;65.05
46714;BME280;32445;51.376;10.874;2023-04-15T08:25:34;98466.25;;;8.87;65.00
46714;BME280;32445;51.376;10.874;2023-04-15T08:28:39;98463.41;;;8.94;64.63
46714;BME280;32445;51.376;10.874;2023-04-15T08:31:40;98454.56;;;9.00;64.69
46714;BME280;32445;51.376;10.874;2023-04-15T08:34:41;98457.06;;;9.03;64.51
46714;BME280;32445;51.376;10.874;2023-04-15T08:37:41;98461.34;;;9.04;64.77
46714;BME280;32445;51.376;10.874;2023-04-15T08:40:43;98469.00;;;9.07;64.82
46714;BME280;32445;51.376;10.874;2023-04-15T08:43:57;98470.78;;;9.05;65.23
46714;BME280;32445;51.376;10.874;2023-04-15T08:47:00;98470.72;;;9.07;64.74
46714;BME280;32445;51.376;10.874;2023-04-15T08:50:02;98466.22;;;9.12;64.88
46714;BME280;32445;51.376;10.874;2023-04-15T08:53:03;98460.94;;;9.15;64.46
46714;BME280;32445;51.376;10.874;2023-04-15T08:56:05;98472.97;;;9.16;64.04
46714;BME280;32445;51.376;10.874;2023-04-15T08:59:06;98475.69;;;9.13;64.54
46714;BME280;32445;51.376;10.874;2023-04-15T09:02:07;98477.41;;;9.12;64.92
46714;BME280;32445;51.376;10.874;2023-04-15T09:05:08;98480.06;;;9.11;64.86
46714;BME280;32445;51.376;10.874;2023-04-15T09:08:08;98489.22;;;9.20;63.90
46714;BME280;32445;51.376;10.874;2023-04-15T09:11:09;98494.25;;;9.24;63.99
46714;BME280;32445;51.376;10.874;2023-04-15T09:14:10;98499.25;;;9.29;63.96
46714;BME280;32445;51.376;10.874;2023-04-15T09:17:11;98503.38;;;9.34;63.50
46714;BME280;32445;51.376;10.874;2023-04-15T09:20:15;98494.66;;;9.37;63.51
46714;BME280;32445;51.376;10.874;2023-04-15T09:23:17;98470.53;;;9.35;64.45
46714;BME280;32445;51.376;10.874;2023-04-15T09:26:18;98481.06;;;9.30;64.82
46714;BME280;32445;51.376;10.874;2023-04-15T09:29:18;98488.03;;;9.28;64.94
46714;BME280;32445;51.376;10.874;2023-04-15T09:32:19;98495.72;;;9.31;64.85
46714;BME280;32445;51.376;10.874;2023-04-15T09:35:23;98492.09;;;9.35;64.65
46714;BME280;32445;51.376;10.874;2023-04-15T09:38:24;98497.06;;;9.42;64.37
46714;BME280;32445;51.376;10.874;2023-04-15T09:41:25;98503.81;;;9.46;64.54
46714;BME280;32445;51.376;10.874;2023-04-15T09:44:26;98500.31;;;9.47;64.42
46714;BME280;32445;51.376;10.874;2023-04-15T09:47:30;98503.88;;;9.44;64.46
46714;BME280;32445;51.376;10.874;2023-04-15T09:50:39;98512.66;;;9.40;65.07
46714;BME280;32445;51.376;10.874;2023-04-15T09:53:40;98509.16;;;9.41;64.82
46714;BME280;32445;51.376;10.874;2023-04-15T09:56:40;98513.38;;;9.44;64.89
46714;BME280;32445;51.376;10.874;2023-04-15T09:59:41;98505.53;;;9.45;65.00
46714;BME280;32445;51.376;10.874;2023-04-15T10:02:42;98522.78;;;9.46;64.89
46714;BME280;32445;51.376;10.874;2023-04-15T10:05:42;98518.50;;;9.45;64.93
46714;BME280;32445;51.376;10.874;2023-04-15T10:08:43;98525.25;;;9.49;64.53
46714;BME280;32445;51.376;10.874;2023-04-15T10:11:46;98525.88;;;9.56;64.52
46714;BME280;32445;51.376;10.874;2023-04-15T10:14:56;98523.22;;;9.58;64.25
46714;BME280;32445;51.376;10.874;2023-04-15T10:17:59;98524.06;;;9.58;64.53
46714;BME280;32445;51.376;10.874;2023-04-15T10:21:00;98529.19;;;9.60;64.26
46714;BME280;32445;51.376;10.874;2023-04-15T10:24:02;98526.53;;;9.61;64.28
46714;BME280;32445;51.376;10.874;2023-04-15T10:27:02;98526.31;;;9.67;64.04
46714;BME280;32445;51.376;10.874;2023-04-15T10:30:04;98540.84;;;9.72;63.75
46714;BME280;32445;51.376;10.874;2023-04-15T10:33:06;98535.44;;;9.78;62.90
46714;BME280;32445;51.376;10.874;2023-04-15T10:36:08;98542.97;;;9.84;62.47
46714;BME280;32445;51.376;10.874;2023-04-15T10:39:43;98544.53;;;9.88;63.04
46714;BME280;32445;51.376;10.874;2023-04-15T10:42:43;98547.81;;;9.93;62.30
46714;BME280;32445;51.376;10.874;2023-04-15T10:45:44;98546.03;;;9.94;62.52
46714;BME280;32445;51.376;10.874;2023-04-15T10:48:49;98539.91;;;9.96;62.61
46714;BME280;32445;51.376;10.874;2023-04-15T10:51:56;98549.31;;;9.99;62.23
46714;BME280;32445;51.376;10.874;2023-04-15T10:55:15;98545.84;;;9.98;62.63
46714;BME280;32445;51.376;10.874;2023-04-15T10:58:18;98546.53;;;10.03;62.81
46714;BME280;32445;51.376;10.874;2023-04-15T11:01:22;98551.59;;;10.07;62.09
46714;BME280;32445;51.376;10.874;2023-04-15T11:04:53;98548.22;;;10.04;62.86
46714;BME280;32445;51.376;10.874;2023-04-15T11:07:54;98548.88;;;10.10;62.27
46714;BME280;32445;51.376;10.874;2023-04-15T11:10:55;98559.91;;;10.15;62.13
46714;BME280;32445;51.376;10.874;2023-04-15T11:13:55;98555.44;;;10.18;62.10
46714;BME280;32445;51.376;10.874;2023-04-15T11:16:57;98556.25;;;10.20;62.27
46714;BME280;32445;51.376;10.874;2023-04-15T11:19:57;98557.97;;;10.20;62.51
46714;BME280;32445;51.376;10.874;2023-04-15T11:22:57;98562.50;;;10.15;62.88
46714;BME280;32445;51.376;10.874;2023-04-15T11:25:59;98565.09;;;10.15;62.71
46714;BME280;32445;51.376;10.874;2023-04-15T11:29:00;98565.75;;;10.20;63.24
46714;BME280;32445;51.376;10.874;2023-04-15T11:32:05;98562.25;;;10.21;62.85
46714;BME280;32445;51.376;10.874;2023-04-15T11:35:06;98564.78;;;10.22;63.28
46714;BME280;32445;51.376;10.874;2023-04-15T11:38:11;98580.28;;;10.24;63.38
46714;BME280;32445;51.376;10.874;2023-04-15T11:41:12;98575.97;;;10.25;63.42
46714;BME280;32445;51.376;10.874;2023-04-15T11:44:16;98579.41;;;10.25;63.68
46714;BME280;32445;51.376;10.874;2023-04-15T11:47:23;98578.63;;;10.23;63.75
46714;BME280;32445;51.376;10.874;2023-04-15T11:50:24;98575.03;;;10.26;63.70
46714;BME280;32445;51.376;10.874;2023-04-15T11:53:48;98579.31;;;10.27;63.40
46714;BME280;32445;51.376;10.874;2023-04-15T11:56:52;98586.28;;;10.26;63.57
46714;BME280;32445;51.376;10.874;2023-04-15T11:59:54;98584.59;;;10.25;63.28
46714;BME280;32445;51.376;10.874;2023-04-15T12:06:21;98601.56;;;10.34;63.20
46714;BME280;32445;51.376;10.874;2023-04-15T12:09:22;98603.91;;;10.40;63.11
46714;BME280;32445;51.376;10.874;2023-04-15T12:12:27;98605.53;;;10.43;62.62
46714;BME280;32445;51.376;10.874;2023-04-15T12:15:27;98612.28;;;10.47;62.42
46714;BME280;32445;51.376;10.874;2023-04-15T12:18:28;98615.50;;;10.53;61.71
46714;BME280;32445;51.376;10.874;2023-04-15T12:21:34;98621.50;;;10.54;61.87
46714;BME280;32445;51.376;10.874;2023-04-15T12:27:38;98637.38;;;10.68;61.08
46714;BME280;32445;51.376;10.874;2023-04-15T12:30:48;98632.91;;;10.72;61.17
46714;BME280;32445;51.376;10.874;2023-04-15T12:33:50;98646.59;;;10.76;61.35
46714;BME280;32445;51.376;10.874;2023-04-15T12:36:50;98649.19;;;10.76;61.25
46714;BME280;32445;51.376;10.874;2023-04-15T12:39:51;98650.00;;;10.78;61.61
46714;BME280;32445;51.376;10.874;2023-04-15T12:42:53;98651.59;;;10.80;61.27
46714;BME280;32445;51.376;10.874;2023-04-15T12:45:53;98661.94;;;10.82;61.46
46714;BME280;32445;51.376;10.874;2023-04-15T12:48:53;98663.56;;;10.84;60.99
46714;BME280;32445;51.376;10.874;2023-04-15T12:51:56;98669.53;;;10.86;61.07
46714;BME280;32445;51.376;10.874;2023-04-15T12:54:56;98670.31;;;10.88;61.02
46714;BME280;32445;51.376;10.874;2023-04-15T12:57:56;98672.72;;;10.93;60.97
46714;BME280;32445;51.376;10.874;2023-04-15T13:00:57;98682.13;;;10.96;61.11
46714;BME280;32445;51.376;10.874;2023-04-15T13:03:57;98680.41;;;10.96;60.78
46714;BME280;32445;51.376;10.874;2023-04-15T13:06:57;98686.38;;;10.98;60.57
46714;BME280;32445;51.376;10.874;2023-04-15T13:09:58;98681.16;;;10.98;60.95
46714;BME280;32445;51.376;10.874;2023-04-15T13:12:58;98692.31;;;11.00;60.77
46714;BME280;32445;51.376;10.874;2023-04-15T13:15:58;98687.19;;;10.99;61.36
46714;BME280;32445;51.376;10.874;2023-04-15T13:19:00;98693.31;;;10.98;61.35
46714;BME280;32445;51.376;10.874;2023-04-15T13:22:00;98695.13;;;10.96;61.88
46714;BME280;32445;51.376;10.874;2023-04-15T13:25:01;98695.06;;;10.97;61.70
46714;BME280;32445;51.376;10.874;2023-04-15T13:28:01;98702.78;;;10.99;61.37
46714;BME280;32445;51.376;10.874;2023-04-15T13:31:02;98705.38;;;10.99;62.07
46714;BME280;32445;51.376;10.874;2023-04-15T13:34:02;98707.06;;;11.00;62.07
46714;BME280;32445;51.376;10.874;2023-04-15T13:37:06;98714.03;;;10.99;62.19
46714;BME280;32445;51.376;10.874;2023-04-15T13:40:07;98714.94;;;10.98;62.28
46714;BME280;32445;51.376;10.874;2023-04-15T13:43:07;98717.53;;;10.98;62.55
46714;BME280;32445;51.376;10.874;2023-04-15T13:46:08;98712.41;;;10.97;62.84
46714;BME280;32445;51.376;10.874;2023-04-15T13:49:08;98727.97;;;10.97;63.17
46714;BME280;32445;51.376;10.874;2023-04-15T13:52:08;98719.28;;;10.98;62.91
46714;BME280;32445;51.376;10.874;2023-04-15T13:55:09;98729.59;;;10.99;62.82
46714;BME280;32445;51.376;10.874;2023-04-15T13:58:10;98721.94;;;10.96;63.02
46714;BME280;32445;51.376;10.874;2023-04-15T14:01:10;98726.34;;;10.94;63.44
46714;BME280;32445;51.376;10.874;2023-04-15T14:04:10;98735.91;;;10.94;63.24
46714;BME280;32445;51.376;10.874;2023-04-15T14:07:11;98741.16;;;10.92;63.82
46714;BME280;32445;51.376;10.874;2023-04-15T14:10:11;98746.47;;;10.89;64.18
46714;BME280;32445;51.376;10.874;2023-04-15T14:13:12;98747.31;;;10.89;64.33
46714;BME280;32445;51.376;10.874;2023-04-15T14:16:12;98747.25;;;10.91;63.98
46714;BME280;32445;51.376;10.874;2023-04-15T14:19:13;98753.34;;;10.90;64.36
46714;BME280;32445;51.376;10.874;2023-04-15T14:22:14;98748.94;;;10.92;64.11
46714;BME280;32445;51.376;10.874;2023-04-15T14:25:14;98756.47;;;10.98;63.73
46714;BME280;32445;51.376;10.874;2023-04-15T14:28:14;98761.53;;;11.01;63.66
46714;BME280;32445;51.376;10.874;2023-04-15T14:31:15;98765.78;;;11.04;63.63
46714;BME280;32445;51.376;10.874;2023-04-15T14:34:16;98768.38;;;11.04;64.09
46714;BME280;32445;51.376;10.874;2023-04-15T14:37:16;98768.38;;;11.04;64.17
46714;BME280;32445;51.376;10.874;2023-04-15T14:40:16;98770.00;;;11.06;63.69
46714;BME280;32445;51.376;10.874;2023-04-15T14:43:17;98777.81;;;11.06;64.50
46714;BME280;32445;51.376;10.874;2023-04-15T14:46:17;98784.78;;;11.04;64.41
46714;BME280;32445;51.376;10.874;2023-04-15T14:49:18;98787.56;;;11.00;65.01
46714;BME280;32445;51.376;10.874;2023-04-15T14:52:18;98792.78;;;11.00;65.12
46714;BME280;32445;51.376;10.874;2023-04-15T14:55:19;98790.84;;;11.05;64.49
46714;BME280;32445;51.376;10.874;2023-04-15T14:58:19;98795.91;;;11.08;64.72
46714;BME280;32445;51.376;10.874;2023-04-15T15:01:20;98798.44;;;11.10;64.56
46714;BME280;32445;51.376;10.874;2023-04-15T15:04:20;98798.38;;;11.11;65.03
46714;BME280;32445;51.376;10.874;2023-04-15T15:07:21;98805.34;;;11.11;65.14
46714;BME280;32445;51.376;10.874;2023-04-15T15:10:22;98802.69;;;11.12;65.35
46714;BME280;32445;51.376;10.874;2023-04-15T15:13:23;98810.41;;;11.14;65.00
46714;BME280;32445;51.376;10.874;2023-04-15T15:16:24;98812.16;;;11.13;65.63
46714;BME280;32445;51.376;10.874;2023-04-15T15:19:25;98815.59;;;11.14;65.07
46714;BME280;32445;51.376;10.874;2023-04-15T15:22:25;98818.22;;;11.14;65.33
46714;BME280;32445;51.376;10.874;2023-04-15T15:25:25;98817.13;;;11.19;64.70
46714;BME280;32445;51.376;10.874;2023-04-15T15:28:26;98824.78;;;11.22;65.04
46714;BME280;32445;51.376;10.874;2023-04-15T15:31:26;98825.63;;;11.23;65.11
46714;BME280;32445;51.376;10.874;2023-04-15T15:34:27;98831.81;;;11.20;64.70
46714;BME280;32445;51.376;10.874;2023-04-15T15:37:29;98828.28;;;11.21;65.10
46714;BME280;32445;51.376;10.874;2023-04-15T15:40:29;98836.75;;;11.27;64.80
46714;BME280;32445;51.376;10.874;2023-04-15T15:43:30;98841.94;;;11.27;65.12
46714;BME280;32445;51.376;10.874;2023-04-15T15:46:30;98849.75;;;11.27;64.56
46714;BME280;32445;51.376;10.874;2023-04-15T15:49:31;98847.03;;;11.30;64.89
46714;BME280;32445;51.376;10.874;2023-04-15T15:52:31;98853.13;;;11.29;64.64
46714;BME280;32445;51.376;10.874;2023-04-15T15:55:31;98847.97;;;11.27;65.39
46714;BME280;32445;51.376;10.874;2023-04-15T15:58:32;98849.75;;;11.27;64.73
46714;BME280;32445;51.376;10.874;2023-04-15T16:01:32;98862.59;;;11.30;64.44
46714;BME280;32445;51.376;10.874;2023-04-15T16:04:33;98847.28;;;11.23;64.65